Time;durP1;ratioP1;P1;durP2;ratioP2;P2;SDS_P1;SDS_P2;PMS_P1;PMS_P2;Temp;Humidity;BMP_temperature;BMP_pressure;BME280_temperature;BME280_humidity;BME280_pressure;Samples;Min_cycle;Max_cycle;Signal;HPM_P1;HPM_P2
2021/01/17 00:00:53;;;;;;;101.95;46.22;;;;;;;-0.10;95.73;101556.25;4945378;29;20486;-79
2021/01/17 00:03:19;;;;;;;98.13;46.85;;;;;;;-0.05;95.77;101555.13;4955027;28;20031;-79
2021/01/17 00:05:45;;;;;;;97.32;45.50;;;;;;;0.01;95.14;101551.38;4963584;28;20129;-75
2021/01/17 00:08:11;;;;;;;104.50;45.72;;;;;;;0.00;95.52;101549.69;4968191;28;20055;-76
2021/01/17 00:10:36;;;;;;;93.43;44.92;;;;;;;0.02;95.15;101550.47;4965852;28;20038;-75
2021/01/17 00:13:02;;;;;;;101.47;45.88;;;;;;;-0.06;95.49;101553.41;4984104;28;20041;-75
2021/01/17 00:15:28;;;;;;;97.20;45.03;;;;;;;0.01;95.65;101547.91;4966914;28;20027;-75
2021/01/17 00:17:53;;;;;;;104.35;47.65;;;;;;;0.00;95.38;101552.31;4967290;28;20182;-76
2021/01/17 00:20:22;;;;;;;106.35;47.17;;;;;;;-0.03;95.42;101552.44;4961897;28;20030;-79
2021/01/17 00:22:48;;;;;;;108.72;49.47;;;;;;;-0.02;95.59;101554.16;4966195;28;20072;-75
2021/01/17 00:25:17;;;;;;;105.20;46.83;;;;;;;0.00;95.97;101560.19;4968074;28;20030;-75
2021/01/17 00:27:43;;;;;;;103.55;45.55;;;;;;;-0.24;95.79;101513.09;4967259;28;20733;-79
2021/01/17 00:30:10;;;;;;;104.85;48.63;;;;;;;0.06;95.40;101551.19;4947678;28;20034;-76
2021/01/17 00:32:35;;;;;;;107.25;46.63;;;;;;;0.07;96.09;101542.41;4968157;28;20088;-75
2021/01/17 00:35:05;;;;;;;108.35;47.20;;;;;;;-0.01;95.57;101543.59;4968760;28;20498;-75
2021/01/17 00:37:31;;;;;;;112.20;48.75;;;;;;;0.07;95.86;101539.78;4960647;28;20988;-75
2021/01/17 00:39:56;;;;;;;102.05;48.25;;;;;;;0.02;95.89;101544.38;4966348;28;20034;-78
2021/01/17 00:42:22;;;;;;;112.25;49.88;;;;;;;-0.01;96.28;101538.34;4968500;28;20043;-75
2021/01/17 00:44:49;;;;;;;115.22;50.03;;;;;;;0.02;96.36;101542.59;4970548;28;20031;-76
2021/01/17 00:47:14;;;;;;;114.82;49.35;;;;;;;-0.01;96.65;101540.13;4960488;28;20023;-75
2021/01/17 00:49:43;;;;;;;106.82;47.88;;;;;;;-0.04;96.35;101524.50;4968991;28;20508;-76
2021/01/17 00:52:16;;;;;;;112.72;50.00;;;;;;;0.04;96.62;101538.13;4965878;28;20050;-76
2021/01/17 00:54:41;;;;;;;110.57;50.00;;;;;;;-0.17;96.22;101498.81;4969083;28;20070;-78
2021/01/17 00:57:07;;;;;;;111.65;50.47;;;;;;;0.07;96.41;101530.13;4961106;28;20086;-76
2021/01/17 00:59:32;;;;;;;117.30;51.97;;;;;;;0.08;96.97;101529.22;4979303;28;20513;-77
2021/01/17 01:01:58;;;;;;;99.70;47.10;;;;;;;0.04;96.55;101534.66;4981789;28;20046;-76
2021/01/17 01:04:23;;;;;;;107.53;50.63;;;;;;;-0.17;97.07;101503.19;4968193;28;20042;-76
2021/01/17 01:06:51;;;;;;;109.22;49.25;;;;;;;-0.19;96.74;101486.66;4965933;28;20026;-76
2021/01/17 01:09:17;;;;;;;;;;;;;;;0.01;97.19;101525.13;4947045;28;20023;-76
2021/01/17 01:11:42;;;;;;;115.47;48.97;;;;;;;-0.02;97.03;101520.88;4961839;28;20377;-76
2021/01/17 01:14:08;;;;;;;119.97;51.95;;;;;;;0.02;97.61;101515.50;4970269;28;20035;-77
2021/01/17 01:16:34;;;;;;;116.13;51.95;;;;;;;-0.14;97.31;101492.56;4968144;28;20019;-77
2021/01/17 01:19:00;;;;;;;115.45;50.10;;;;;;;0.05;97.42;101526.72;4952338;28;20031;-77
2021/01/17 01:21:29;;;;;;;109.20;49.80;;;;;;;0.07;97.54;101526.66;4952763;28;20593;-77
2021/01/17 01:23:54;;;;;;;116.13;51.83;;;;;;;0.10;97.57;101521.25;4964917;28;20045;-77
2021/01/17 01:26:21;;;;;;;112.05;49.90;;;;;;;0.09;97.61;101514.28;4963365;28;20035;-77
2021/01/17 01:28:54;;;;;;;115.82;51.45;;;;;;;0.01;97.03;101492.81;4961063;28;20041;-77
2021/01/17 01:31:23;;;;;;;113.10;50.45;;;;;;;0.13;97.11;101493.13;4943723;28;20098;-76
2021/01/17 01:33:49;;;;;;;103.80;49.28;;;;;;;0.15;96.95;101496.50;4964899;28;20031;-77
2021/01/17 01:36:19;;;;;;;109.18;50.95;;;;;;;0.06;97.13;101470.69;4966686;28;20026;-77
2021/01/17 01:38:45;;;;;;;112.00;50.17;;;;;;;0.05;97.45;101476.00;4966281;28;20050;-77
2021/01/17 01:41:11;;;;;;;116.35;51.88;;;;;;;0.12;97.13;101499.28;4968438;28;20031;-77
2021/01/17 01:43:36;;;;;;;119.53;51.05;;;;;;;0.10;98.22;101501.13;4960151;28;20030;-78
2021/01/17 01:46:02;;;;;;;123.68;54.63;;;;;;;0.08;97.96;101505.59;4966140;28;20034;-78
2021/01/17 01:48:30;;;;;;;126.40;53.20;;;;;;;0.11;98.06;101504.59;4962204;28;20469;-78
2021/01/17 01:50:55;;;;;;;126.22;54.50;;;;;;;0.03;98.09;101486.56;4960734;28;20057;-78
2021/01/17 01:53:21;;;;;;;127.00;54.67;;;;;;;0.09;98.65;101498.53;4965501;28;20539;-77
2021/01/17 01:55:46;;;;;;;124.20;53.53;;;;;;;-0.09;98.34;101451.25;4966483;28;20031;-78
2021/01/17 01:58:12;;;;;;;111.38;51.25;;;;;;;0.02;98.19;101469.09;4967502;28;20417;-77
2021/01/17 02:00:37;;;;;;;121.85;52.50;;;;;;;0.22;98.39;101502.31;4958707;28;20067;-79
2021/01/17 02:03:03;;;;;;;110.60;51.05;;;;;;;0.22;98.29;101504.94;4965655;28;20035;-77
2021/01/17 02:05:28;;;;;;;117.22;52.33;;;;;;;0.23;97.73;101501.41;4950234;28;20567;-79
2021/01/17 02:08:18;;;;;;;122.82;50.53;;;;;;;0.23;97.69;101506.66;4966186;28;20035;-78
2021/01/17 02:10:43;;;;;;;120.85;52.65;;;;;;;0.20;98.46;101509.44;4969048;28;20025;-78
2021/01/17 02:13:36;;;;;;;106.82;49.30;;;;;;;0.29;98.07;101502.91;4953589;28;20030;-81
2021/01/17 02:16:01;;;;;;;117.32;51.00;;;;;;;0.25;98.01;101496.09;4963529;28;20486;-78
2021/01/17 02:18:27;;;;;;;120.55;54.35;;;;;;;0.26;97.91;101497.81;4950381;28;20066;-77
2021/01/17 02:20:52;;;;;;;108.20;51.72;;;;;;;0.29;98.29;101495.00;4948828;28;20053;-82
2021/01/17 02:23:35;;;;;;;118.60;52.10;;;;;;;0.14;98.23;101479.03;4961939;28;20038;-76
2021/01/17 02:26:01;;;;;;;117.38;52.83;;;;;;;0.26;98.93;101493.41;4938732;28;20174;-81
2021/01/17 02:28:26;;;;;;;125.15;53.47;;;;;;;0.24;98.99;101497.03;4939960;28;20438;-81
2021/01/17 02:30:52;;;;;;;111.75;51.42;;;;;;;0.27;98.59;101491.63;4959691;28;20035;-82
2021/01/17 02:33:23;;;;;;;115.40;52.33;;;;;;;0.16;98.39;101465.88;4966437;28;20035;-82
2021/01/17 02:35:50;;;;;;;119.20;53.38;;;;;;;0.04;98.55;101453.31;4965750;28;20029;-82
2021/01/17 02:38:47;;;;;;;128.70;55.30;;;;;;;0.26;98.71;101485.50;4963553;28;20039;-81
2021/01/17 02:41:18;;;;;;;133.43;55.38;;;;;;;-0.02;99.45;101450.03;4962448;28;20573;-81
2021/01/17 02:43:43;;;;;;;117.07;52.42;;;;;;;0.18;99.10;101482.41;4964124;28;20031;-81
2021/01/17 02:46:09;;;;;;;124.82;53.90;;;;;;;0.23;99.39;101488.28;4957177;28;20038;-82
2021/01/17 02:48:35;;;;;;;111.13;48.55;;;;;;;0.32;99.85;101496.66;4964816;28;20034;-81
2021/01/17 02:51:00;;;;;;;111.78;51.47;;;;;;;0.33;99.72;101495.75;4965999;28;20133;-81
2021/01/17 02:53:29;;;;;;;119.80;52.38;;;;;;;0.34;99.74;101494.84;4964163;28;20046;-81
2021/01/17 02:55:54;;;;;;;130.32;53.70;;;;;;;0.04;99.73;101454.16;4964658;28;20489;-80
2021/01/17 02:58:20;;;;;;;126.10;53.65;;;;;;;0.35;99.76;101494.75;4941770;28;20083;-81
2021/01/17 03:00:46;;;;;;;118.30;51.92;;;;;;;0.23;99.73;101480.41;4947543;28;20394;-74
2021/01/17 03:03:11;;;;;;;119.40;52.63;;;;;;;0.40;100.00;101494.53;4917483;28;20045;-75
2021/01/17 03:05:37;;;;;;;119.05;53.33;;;;;;;0.41;100.00;101491.81;4933421;28;20033;-75
2021/01/17 03:08:04;;;;;;;115.05;51.35;;;;;;;0.42;99.79;101492.69;4961306;28;20027;-80
2021/01/17 03:10:29;;;;;;;119.63;52.55;;;;;;;0.45;100.00;101487.31;4946597;28;20165;-75
2021/01/17 03:12:55;;;;;;;124.75;51.60;;;;;;;0.30;100.00;101457.34;4968142;28;20026;-75
2021/01/17 03:15:20;;;;;;;121.82;52.35;;;;;;;0.47;100.00;101479.34;4950110;28;20043;-80
2021/01/17 03:17:46;;;;;;;117.90;51.47;;;;;;;0.46;100.00;101491.63;4945103;28;20050;-80
2021/01/17 03:20:11;;;;;;;112.50;52.30;;;;;;;0.47;100.00;101480.22;4964989;28;20051;-80
2021/01/17 03:22:37;;;;;;;113.95;51.60;;;;;;;0.25;100.00;101435.72;4966365;28;20034;-80
2021/01/17 03:25:03;;;;;;;123.03;52.20;;;;;;;0.49;100.00;101478.34;4948028;28;20030;-79
2021/01/17 03:27:28;;;;;;;117.25;53.05;;;;;;;0.38;100.00;101459.59;4963393;28;20545;-79
2021/01/17 03:29:54;;;;;;;125.57;52.83;;;;;;;0.49;100.00;101483.59;4983076;28;20031;-79
2021/01/17 03:32:19;;;;;;;117.95;51.97;;;;;;;0.55;100.00;101483.31;4967136;28;20490;-79
2021/01/17 03:34:48;;;;;;;116.85;51.83;;;;;;;0.58;100.00;101483.19;4964402;28;20086;-79
2021/01/17 03:37:20;;;;;;;117.22;51.38;;;;;;;0.37;100.00;101450.91;4958152;28;20022;-77
2021/01/17 03:39:46;;;;;;;120.38;51.60;;;;;;;0.56;100.00;101487.66;4964698;28;20073;-76
2021/01/17 03:42:11;;;;;;;121.25;52.63;;;;;;;0.43;100.00;101468.97;4962918;28;20050;-76
2021/01/17 03:44:37;;;;;;;123.53;51.42;;;;;;;0.50;100.00;101474.78;4948071;28;20069;-75
2021/01/17 03:47:03;;;;;;;107.20;48.92;;;;;;;0.61;100.00;101484.78;4943628;28;20031;-76
2021/01/17 03:49:29;;;;;;;119.05;53.30;;;;;;;0.42;100.00;101461.19;4954051;28;20054;-77
2021/01/17 03:51:54;;;;;;;116.50;51.20;;;;;;;0.42;100.00;101448.03;4931671;28;20121;-77
2021/01/17 03:54:20;;;;;;;117.13;51.15;;;;;;;0.64;99.91;101487.28;4956773;28;20309;-77
2021/01/17 03:56:46;;;;;;;114.38;51.92;;;;;;;0.67;100.00;101499.41;4966100;28;20132;-77
2021/01/17 03:59:16;;;;;;;106.97;49.85;;;;;;;0.67;99.87;101505.53;4962747;28;20166;-77
2021/01/17 04:01:44;;;;;;;115.57;52.13;;;;;;;0.65;100.00;101503.88;4970639;28;20117;-77
2021/01/17 04:04:10;;;;;;;119.53;52.63;;;;;;;0.65;100.00;101504.75;4964360;28;20035;-77
2021/01/17 04:06:36;;;;;;;118.63;51.55;;;;;;;0.39;100.00;101456.06;4969140;28;20517;-77
2021/01/17 04:09:05;;;;;;;111.97;50.58;;;;;;;0.70;100.00;101497.47;4965880;28;20070;-78
2021/01/17 04:11:31;;;;;;;109.43;49.67;;;;;;;0.71;100.00;101496.56;4962915;28;20175;-77
2021/01/17 04:13:56;;;;;;;122.03;53.42;;;;;;;0.45;100.00;101464.50;4964792;28;20710;-77
2021/01/17 04:16:22;;;;;;;115.32;51.83;;;;;;;0.69;100.00;101497.56;4934072;28;20050;-77
2021/01/17 04:18:47;;;;;;;128.45;54.53;;;;;;;0.68;100.00;101501.94;4964674;28;20058;-77
2021/01/17 04:21:13;;;;;;;115.68;52.25;;;;;;;0.34;100.00;101447.56;4948840;28;20039;-77
2021/01/17 04:23:38;;;;;;;122.32;51.58;;;;;;;0.75;100.00;101499.88;4962071;28;20040;-77
2021/01/17 04:26:03;;;;;;;123.32;54.22;;;;;;;0.65;100.00;101493.38;4967505;28;20452;-77
2021/01/17 04:28:29;;;;;;;120.47;53.72;;;;;;;0.72;100.00;101505.31;4964090;28;20049;-76
2021/01/17 04:30:54;;;;;;;125.70;52.47;;;;;;;0.45;100.00;101447.91;4966547;28;20505;-77
2021/01/17 04:33:20;;;;;;;121.50;52.08;;;;;;;0.72;100.00;101494.81;4969079;28;20062;-77
2021/01/17 04:35:46;;;;;;;129.07;54.85;;;;;;;0.73;100.00;101494.72;4966316;28;20035;-76
2021/01/17 04:38:11;;;;;;;132.95;56.63;;;;;;;0.57;100.00;101470.97;4963949;28;20023;-76
2021/01/17 04:40:37;;;;;;;132.73;54.13;;;;;;;0.50;100.00;101448.53;4969975;28;20058;-76
2021/01/17 04:43:07;;;;;;;129.45;54.75;;;;;;;0.64;100.00;101475.91;4949459;28;20039;-76
2021/01/17 04:45:33;;;;;;;142.98;55.83;;;;;;;0.61;100.00;101462.00;4968104;28;20031;-76
2021/01/17 04:47:59;;;;;;;129.15;53.53;;;;;;;0.68;100.00;101466.97;4951069;28;20023;-76
2021/01/17 04:50:24;;;;;;;131.02;54.78;;;;;;;0.64;100.00;101463.63;4943702;28;20027;-77
2021/01/17 04:53:10;;;;;;;137.07;54.33;;;;;;;0.87;100.00;101486.19;4924372;28;20057;-77
2021/01/17 04:55:36;;;;;;;133.30;52.70;;;;;;;0.50;100.00;101418.78;4966338;28;20113;-78
2021/01/17 04:58:19;;;;;;;135.00;55.58;;;;;;;0.95;100.00;101482.31;4950121;28;20628;-77
2021/01/17 05:00:57;;;;;;;136.52;54.78;;;;;;;0.38;100.00;101386.94;4964760;28;20043;-76
2021/01/17 05:03:26;;;;;;;130.52;51.75;;;;;;;1.03;100.00;101488.03;4972300;28;20037;-76
2021/01/17 05:06:06;;;;;;;133.60;52.28;;;;;;;0.91;100.00;101456.19;4962746;28;20034;-75
2021/01/17 05:08:33;;;;;;;141.85;51.50;;;;;;;1.12;100.00;101487.59;4976935;28;20061;-78
2021/01/17 05:11:02;;;;;;;136.10;50.72;;;;;;;1.18;100.00;101486.44;4969532;28;20510;-76
2021/01/17 05:13:36;;;;;;;137.80;51.95;;;;;;;1.24;100.00;101491.38;4960788;28;20035;-76
2021/01/17 05:16:06;;;;;;;134.73;48.95;;;;;;;1.31;100.00;101495.44;4964074;28;20026;-76
2021/01/17 05:18:32;;;;;;;127.55;50.08;;;;;;;1.10;100.00;101457.03;4964719;28;20033;-77
2021/01/17 05:20:59;;;;;;;140.02;50.75;;;;;;;1.39;100.00;101497.69;4965760;28;20038;-78
2021/01/17 05:23:24;;;;;;;130.30;49.38;;;;;;;1.41;100.00;101497.59;4963005;28;20312;-78
2021/01/17 05:25:49;;;;;;;141.02;50.47;;;;;;;1.46;100.00;101490.31;4949017;28;20041;-76
2021/01/17 05:28:15;;;;;;;135.98;47.28;;;;;;;1.51;100.00;101497.06;4964484;28;20041;-77
2021/01/17 05:30:44;;;;;;;131.50;46.42;;;;;;;1.54;100.00;101498.66;4968864;28;20629;-77
2021/01/17 05:33:10;;;;;;;109.13;43.30;;;;;;;1.56;100.00;101494.19;4929967;28;20458;-76
2021/01/17 05:35:35;;;;;;;120.25;41.78;;;;;;;1.62;100.00;101496.50;4970979;28;20027;-76
2021/01/17 05:38:01;;;;;;;104.35;38.50;;;;;;;1.67;100.00;101489.22;4960074;28;20046;-75
2021/01/17 05:40:26;;;;;;;92.82;30.67;;;;;;;1.32;100.00;101398.97;4965412;28;20058;-76
2021/01/17 05:42:52;;;;;;;81.80;27.67;;;;;;;2.11;100.00;101500.94;4947670;28;20096;-76
2021/01/17 05:45:20;;;;;;;82.57;24.67;;;;;;;2.28;100.00;101510.59;4967417;28;20413;-76
2021/01/17 05:48:01;;;;;;;83.63;23.45;;;;;;;2.39;100.00;101509.16;4965892;28;20085;-76
2021/01/17 05:50:28;;;;;;;75.82;24.00;;;;;;;1.76;100.00;101398.41;4949798;28;20174;-75
2021/01/17 05:53:00;;;;;;;74.25;22.00;;;;;;;2.53;100.00;101516.31;4943886;28;20050;-77
2021/01/17 05:55:40;;;;;;;89.85;22.38;;;;;;;2.58;100.00;101515.09;4965120;28;20056;-77
2021/01/17 05:58:24;;;;;;;70.78;19.27;;;;;;;2.62;100.00;101517.59;4960410;28;20050;-76
2021/01/17 06:00:54;;;;;;;85.47;20.00;;;;;;;2.56;100.00;101508.22;4966696;28;20130;-76
2021/01/17 06:03:21;;;;;;;65.53;18.83;;;;;;;2.51;100.00;101503.22;4964726;28;20038;-76
2021/01/17 06:05:47;;;;;;;68.63;18.05;;;;;;;2.68;100.00;101527.81;4960498;28;20664;-76
2021/01/17 06:08:13;;;;;;;73.55;17.98;;;;;;;2.68;100.00;101530.44;4946464;28;20580;-76
2021/01/17 06:10:38;;;;;;;66.25;16.77;;;;;;;2.56;100.00;101522.28;4948508;28;20110;-76
2021/01/17 06:13:03;;;;;;;72.35;16.27;;;;;;;2.67;100.00;101537.47;4947021;28;20023;-76
2021/01/17 06:15:32;;;;;;;56.88;14.68;;;;;;;2.53;100.00;101513.66;4947870;28;20030;-76
2021/01/17 06:17:57;;;;;;;;;;;;;;;2.68;100.00;101543.63;4966745;28;20039;-76
2021/01/17 06:20:26;;;;;;;62.85;11.65;;;;;;;2.68;100.00;101546.25;4964622;28;19961;-78
2021/01/17 06:22:56;;;;;;;67.18;12.30;;;;;;;2.45;100.00;101508.81;4961085;28;20039;-78
2021/01/17 06:25:29;;;;;;;60.90;11.48;;;;;;;2.53;100.00;101521.56;4963685;28;20039;-77
2021/01/17 06:28:10;;;;;;;53.03;10.20;;;;;;;2.60;100.00;101534.31;4963806;28;20066;-77
2021/01/17 06:30:36;;;;;;;62.58;11.02;;;;;;;2.76;100.00;101557.22;4963647;28;20489;-79
2021/01/17 06:33:02;;;;;;;65.85;10.07;;;;;;;2.79;100.00;101561.44;4961500;28;20026;-78
2021/01/17 06:35:31;;;;;;;73.20;10.88;;;;;;;2.81;100.00;101564.84;4948481;28;20367;-77
2021/01/17 06:37:57;;;;;;;57.22;9.02;;;;;;;2.56;100.00;101524.03;4963040;28;20033;-77
2021/01/17 06:40:30;;;;;;;70.20;10.15;;;;;;;2.66;100.00;101535.78;4944165;28;20039;-77
2021/01/17 06:42:55;;;;;;;72.20;10.45;;;;;;;2.89;100.00;101566.13;4956953;28;20039;-77
2021/01/17 06:45:21;;;;;;;55.42;8.02;;;;;;;2.86;100.00;101560.19;4964612;28;20414;-77
2021/01/17 06:47:53;;;;;;;68.63;8.93;;;;;;;2.91;100.00;101552.88;4965800;28;20117;-76
2021/01/17 06:50:21;;;;;;;57.28;9.30;;;;;;;2.94;100.00;101550.06;4961451;28;20037;-77
2021/01/17 06:52:54;;;;;;;66.15;9.05;;;;;;;3.14;100.00;101585.03;4945741;28;20582;-78
2021/01/17 06:55:20;;;;;;;64.95;8.35;;;;;;;3.27;100.00;101579.88;4965405;28;20039;-76
2021/01/17 06:57:46;;;;;;;58.60;7.88;;;;;;;3.29;100.00;101584.16;4964031;28;20045;-76
2021/01/17 07:00:16;;;;;;;62.10;7.82;;;;;;;3.30;100.00;101591.13;4948042;28;20548;-76
2021/01/17 07:02:45;;;;;;;69.97;8.63;;;;;;;3.26;100.00;101576.41;4960825;28;20039;-77
2021/01/17 07:05:29;;;;;;;63.05;8.95;;;;;;;3.35;100.00;101596.13;4963125;28;20035;-76
2021/01/17 07:08:33;;;;;;;55.90;8.32;;;;;;;3.43;100.00;101595.72;4964642;28;20498;-76
2021/01/17 07:11:11;;;;;;;66.75;8.18;;;;;;;3.45;100.00;101586.75;4977598;28;20050;-76
2021/01/17 07:13:36;;;;;;;;;;;;;;;3.58;100.00;101600.09;4947000;28;20027;-76
2021/01/17 07:16:03;;;;;;;62.80;7.65;;;;;;;3.60;100.00;101602.63;4946890;28;20019;-76
2021/01/17 07:18:32;;;;;;;47.55;7.95;;;;;;;3.43;100.00;101564.88;4962041;28;20038;-75
2021/01/17 07:20:58;;;;;;;58.30;7.75;;;;;;;3.64;100.00;101607.66;4959553;28;20505;-76
2021/01/17 07:23:23;;;;;;;57.95;7.70;;;;;;;3.65;100.00;101613.78;4938873;28;20023;-76
2021/01/17 07:25:49;;;;;;;52.75;7.22;;;;;;;3.62;100.00;101614.81;4940387;28;20019;-76
2021/01/17 07:28:20;;;;;;;42.92;7.72;;;;;;;3.44;100.00;101585.03;4954023;28;20074;-76
2021/01/17 07:30:58;;;;;;;61.30;8.48;;;;;;;3.56;100.00;101617.81;4940192;28;20086;-76
2021/01/17 07:33:31;;;;;;;47.20;6.57;;;;;;;3.33;100.00;101596.22;4970372;28;20089;-76
2021/01/17 07:36:07;;;;;;;56.13;7.18;;;;;;;3.47;100.00;101634.16;4968473;28;20110;-76
2021/01/17 07:38:37;;;;;;;59.85;8.70;;;;;;;2.66;100.00;101533.13;4971544;28;20101;-76
2021/01/17 07:41:02;;;;;;;65.50;8.82;;;;;;;3.40;100.00;101638.09;4964621;28;20300;-76
2021/01/17 07:43:32;;;;;;;56.42;8.02;;;;;;;3.35;100.00;101649.75;4970912;28;20545;-76
2021/01/17 07:45:59;;;;;;;68.55;10.45;;;;;;;3.15;100.00;101621.00;4970307;28;20078;-76
2021/01/17 07:48:25;;;;;;;68.45;10.63;;;;;;;3.27;100.00;101646.69;4951865;28;20027;-76
2021/01/17 07:50:53;;;;;;;61.13;10.55;;;;;;;3.25;100.00;101648.56;4934380;28;20062;-76
2021/01/17 07:53:38;;;;;;;64.63;11.45;;;;;;;3.25;100.00;101658.28;4968106;28;20037;-76
2021/01/17 07:56:07;;;;;;;59.85;11.80;;;;;;;3.24;100.00;101665.34;4967534;28;20090;-76
2021/01/17 07:58:33;;;;;;;69.10;12.38;;;;;;;3.18;100.00;101652.50;4969079;28;20074;-77
2021/01/17 08:01:00;;;;;;;84.25;15.13;;;;;;;3.31;100.00;101671.13;4981930;28;21269;-78
2021/01/17 08:03:27;;;;;;;76.50;14.25;;;;;;;3.34;100.00;101670.94;4967775;28;20121;-80
2021/01/17 08:05:53;;;;;;;61.03;11.95;;;;;;;3.22;100.00;101654.88;4962937;28;20041;-79
2021/01/17 08:08:48;;;;;;;59.53;12.65;;;;;;;3.40;100.00;101683.78;4945109;28;20027;-79
2021/01/17 08:11:52;;;;;;;64.60;13.32;;;;;;;3.44;100.00;101689.75;4968559;28;20049;-79
2021/01/17 08:14:36;;;;;;;64.78;11.43;;;;;;;3.49;100.00;101698.25;4977113;28;20114;-78
2021/01/17 08:17:11;;;;;;;54.33;10.30;;;;;;;3.55;100.00;101697.94;4950128;28;20085;-78
2021/01/17 08:19:52;;;;;;;80.95;11.02;;;;;;;3.61;100.00;101697.56;4964028;28;20031;-76
2021/01/17 08:22:18;;;;;;;66.57;10.70;;;;;;;3.66;100.00;101695.53;4966752;28;20093;-76
2021/01/17 08:24:47;;;;;;;67.80;10.70;;;;;;;3.77;100.00;101708.13;4971054;28;20409;-79
2021/01/17 08:27:28;;;;;;;55.10;8.10;;;;;;;3.80;100.00;101707.09;4960870;28;20035;-78
2021/01/17 08:30:06;;;;;;;53.28;7.80;;;;;;;3.94;100.00;101708.91;4964661;28;20545;-79
2021/01/17 08:32:44;;;;;;;;;;;;;;;3.87;100.00;101715.50;4954166;28;20034;-79
2021/01/17 08:35:15;;;;;;;51.78;8.98;;;;;;;3.89;100.00;101726.84;4977487;28;19918;-76
2021/01/17 08:37:41;;;;;;;58.53;8.98;;;;;;;3.63;100.00;101684.28;4964185;28;20543;-77
2021/01/17 08:40:07;;;;;;;35.30;7.95;;;;;;;3.83;100.00;101707.75;4964674;28;20037;-74
2021/01/17 08:42:43;;;;;;;36.83;7.47;;;;;;;4.00;100.00;101728.88;4956632;28;20046;-76
2021/01/17 08:45:20;;;;;;;39.75;8.10;;;;;;;4.01;100.00;101741.97;4925902;28;20062;-76
2021/01/17 08:47:51;;;;;;;35.30;9.02;;;;;;;4.01;100.00;101734.06;4958374;28;20062;-76
2021/01/17 08:50:33;;;;;;;51.88;9.13;;;;;;;3.98;100.00;101736.88;4955024;28;20030;-76
2021/01/17 08:53:08;;;;;;;37.58;7.47;;;;;;;4.06;99.91;101745.22;4955598;28;20058;-77
2021/01/17 08:55:41;;;;;;;41.45;8.10;;;;;;;3.81;99.16;101695.59;4952294;28;20239;-74
2021/01/17 08:58:06;;;;;;;43.70;7.93;;;;;;;4.09;98.89;101739.72;4922524;28;20057;-74
2021/01/17 09:00:51;;;;;;;46.42;9.65;;;;;;;4.14;99.13;101747.38;4955112;28;20047;-74
2021/01/17 09:03:35;;;;;;;47.63;10.98;;;;;;;4.16;99.13;101755.25;4956175;28;20041;-73
2021/01/17 09:06:13;;;;;;;33.47;7.65;;;;;;;4.20;98.53;101751.50;4952776;28;20031;-74
2021/01/17 09:08:40;;;;;;;36.80;6.97;;;;;;;4.14;98.39;101750.03;4970570;28;20165;-76
2021/01/17 09:11:25;;;;;;;25.92;5.30;;;;;;;4.37;98.52;101769.00;4956815;28;20057;-76
2021/01/17 09:14:12;;;;;;;41.78;6.32;;;;;;;4.37;98.15;101774.28;4949846;28;20031;-73
2021/01/17 09:16:45;;;;;;;29.70;6.20;;;;;;;4.33;98.43;101757.75;4956137;28;20035;-73
2021/01/17 09:19:10;;;;;;;32.30;5.20;;;;;;;4.47;97.66;101774.59;4953187;28;20034;-73
2021/01/17 09:21:36;;;;;;;25.52;5.32;;;;;;;4.35;97.43;101749.72;4972321;28;20095;-73
2021/01/17 09:24:12;;;;;;;35.25;6.85;;;;;;;4.57;97.81;101786.34;4940968;28;20023;-73
2021/01/17 09:26:40;;;;;;;31.25;7.45;;;;;;;4.67;97.39;101789.28;4938708;28;20541;-73
2021/01/17 09:29:05;;;;;;;29.58;7.30;;;;;;;4.84;96.79;101797.03;4954586;28;20673;-73
2021/01/17 09:31:31;;;;;;;36.25;6.95;;;;;;;4.81;96.03;101773.44;4950839;28;20121;-73
2021/01/17 09:33:56;;;;;;;31.20;7.07;;;;;;;5.05;95.51;101802.81;4956130;28;20100;-73
2021/01/17 09:36:23;;;;;;;33.17;6.32;;;;;;;5.13;95.62;101799.72;4953628;28;20042;-73
2021/01/17 09:38:49;;;;;;;36.00;7.65;;;;;;;5.16;95.17;101803.97;4953428;28;22633;-73
2021/01/17 09:41:23;;;;;;;30.50;6.10;;;;;;;4.90;94.86;101766.72;4956835;28;20043;-73
2021/01/17 09:43:52;;;;;;;32.47;5.78;;;;;;;5.09;95.28;101798.19;4938345;28;20065;-73
2021/01/17 09:46:21;;;;;;;;;;;;;;;5.11;95.55;101812.19;4957859;28;20097;-73
2021/01/17 09:48:56;;;;;;;32.22;6.88;;;;;;;5.10;95.33;101820.22;4932498;28;20234;-73
2021/01/17 09:51:23;;;;;;;36.53;7.10;;;;;;;5.18;95.18;101831.19;4957138;28;20045;-73
2021/01/17 09:53:53;;;;;;;30.92;6.22;;;;;;;5.08;95.53;101811.53;4952378;28;20135;-73
2021/01/17 09:56:19;;;;;;;42.70;6.75;;;;;;;5.11;95.81;101817.47;4955034;28;20030;-75
2021/01/17 09:58:45;;;;;;;39.10;6.75;;;;;;;5.26;96.06;101838.66;4953286;28;20565;-75
2021/01/17 10:01:19;;;;;;;29.98;6.45;;;;;;;5.28;95.59;101845.56;4955216;28;20056;-75
2021/01/17 10:03:48;;;;;;;38.97;5.93;;;;;;;5.26;96.16;101850.09;4970530;28;20030;-77
2021/01/17 10:06:20;;;;;;;44.67;7.90;;;;;;;5.36;95.70;101861.81;4968782;28;20089;-77
2021/01/17 10:08:45;;;;;;;37.40;7.05;;;;;;;5.29;95.68;101852.56;4950071;28;20043;-75
2021/01/17 10:11:11;;;;;;;36.97;7.00;;;;;;;4.89;95.63;101784.41;4938578;28;20544;-74
2021/01/17 10:13:37;;;;;;;48.53;7.78;;;;;;;5.28;95.65;101836.78;4954304;28;20041;-75
2021/01/17 10:16:02;;;;;;;36.28;6.47;;;;;;;5.48;96.39;101859.38;4952884;28;20121;-75
2021/01/17 10:18:28;;;;;;;37.38;6.88;;;;;;;5.66;96.19;101862.66;4963142;28;20030;-75
2021/01/17 10:20:57;;;;;;;39.67;6.55;;;;;;;5.90;95.35;101859.44;4960795;28;20045;-74
2021/01/17 10:23:30;;;;;;;36.92;5.45;;;;;;;6.21;95.29;101871.59;4962832;28;20097;-75
2021/01/17 10:25:56;;;;;;;23.30;4.72;;;;;;;6.49;92.10;101875.09;4957636;28;20031;-74
2021/01/17 10:28:24;;;;;;;22.35;3.72;;;;;;;6.34;89.38;101846.94;4959528;28;20470;-79
2021/01/17 10:30:49;;;;;;;20.60;3.63;;;;;;;6.32;89.51;101862.91;4958263;28;20026;-74
2021/01/17 10:33:15;;;;;;;18.30;3.42;;;;;;;6.38;90.13;101877.59;4944752;28;20221;-75
2021/01/17 10:35:44;;;;;;;19.17;3.55;;;;;;;6.29;89.99;101884.34;4962908;28;20229;-75
2021/01/17 10:38:10;;;;;;;29.20;4.57;;;;;;;5.79;91.15;101837.09;4960989;28;21283;-72
2021/01/17 10:40:36;;;;;;;17.92;3.17;;;;;;;6.18;91.59;101893.00;4927872;28;20057;-73
2021/01/17 10:43:23;;;;;;;20.02;3.45;;;;;;;6.24;90.52;101889.94;4959905;28;20034;-73
2021/01/17 10:45:54;;;;;;;21.42;3.55;;;;;;;6.25;90.78;101896.09;4962770;28;20470;-73
2021/01/17 10:48:19;;;;;;;24.70;3.35;;;;;;;6.20;91.58;101887.56;4976699;28;20019;-73
2021/01/17 10:51:03;;;;;;;20.70;3.88;;;;;;;6.23;91.85;101896.22;4962148;28;20527;-73
2021/01/17 10:53:37;;;;;;;23.15;3.15;;;;;;;6.32;92.15;101897.38;4956064;28;20038;-73
2021/01/17 10:56:03;;;;;;;22.05;3.05;;;;;;;6.42;92.32;101897.66;4962947;28;20045;-73
2021/01/17 10:58:33;;;;;;;21.83;3.58;;;;;;;6.54;91.50;101899.50;4960748;28;20058;-73
2021/01/17 11:01:00;;;;;;;24.40;3.85;;;;;;;6.58;91.00;101903.66;4944150;28;20399;-73
2021/01/17 11:03:32;;;;;;;18.95;2.78;;;;;;;6.64;90.57;101907.69;4961002;28;20497;-73
2021/01/17 11:06:03;;;;;;;18.73;2.90;;;;;;;6.74;90.11;101905.28;4959904;28;20068;-73
2021/01/17 11:08:29;;;;;;;19.75;3.60;;;;;;;6.64;89.99;101910.34;4964620;28;20429;-73
2021/01/17 11:10:58;;;;;;;20.80;3.30;;;;;;;6.63;90.32;101908.66;4960176;28;20170;-73
2021/01/17 11:13:23;;;;;;;18.02;3.65;;;;;;;6.66;90.18;101905.81;4960901;28;20026;-73
2021/01/17 11:15:49;;;;;;;21.17;4.22;;;;;;;6.61;89.67;101899.94;4933619;28;20033;-73
2021/01/17 11:18:20;;;;;;;23.05;4.03;;;;;;;6.54;89.55;101915.41;4936993;28;20023;-73
2021/01/17 11:20:45;;;;;;;23.88;4.03;;;;;;;6.42;90.24;101918.84;4962771;28;20517;-73